createdAt,value
2022-11-22T00:00:56.705Z,56.50
2022-11-22T00:03:24.653Z,57.50
2022-11-22T00:05:52.444Z,61.40
2022-11-22T00:08:20.315Z,62.20
2022-11-22T00:10:51.503Z,54.20
2022-11-22T00:13:20.005Z,55.60
2022-11-22T00:15:58.910Z,63.00
2022-11-22T00:18:27.781Z,60.60
2022-11-22T00:20:56.232Z,67.30
2022-11-22T00:23:24.173Z,71.20
2022-11-22T00:25:51.987Z,67.40
2022-11-22T00:28:19.756Z,67.30
2022-11-22T00:30:47.502Z,70.70
2022-11-22T00:33:15.269Z,68.60
2022-11-22T00:35:45.370Z,70.90
2022-11-22T00:38:13.120Z,69.70
2022-11-22T00:40:40.947Z,58.00
2022-11-22T00:43:08.824Z,66.70
2022-11-22T00:45:36.638Z,61.70
2022-11-22T00:48:04.804Z,61.00
2022-11-22T00:50:32.571Z,65.00
2022-11-22T00:53:00.252Z,65.10
2022-11-22T00:55:28.106Z,62.40
2022-11-22T00:57:56.149Z,65.90
2022-11-22T01:00:24.147Z,68.40
2022-11-22T01:02:52.004Z,68.20
2022-11-22T01:05:20.671Z,66.00
2022-11-22T01:07:48.762Z,66.50
2022-11-22T01:10:16.917Z,70.90
2022-11-22T01:12:45.262Z,67.60
2022-11-22T01:15:13.082Z,70.70
2022-11-22T01:17:41.041Z,72.70
2022-11-22T01:20:09.638Z,68.40
2022-11-22T01:22:37.447Z,73.50
2022-11-22T01:25:05.807Z,75.80
2022-11-22T01:27:33.943Z,76.90
2022-11-22T01:30:01.823Z,74.40
2022-11-22T01:32:29.722Z,69.20
2022-11-22T01:35:00.141Z,73.70
2022-11-22T01:37:28.074Z,72.80
2022-11-22T01:39:55.999Z,76.90
2022-11-22T01:42:23.801Z,72.90
2022-11-22T01:44:53.813Z,75.50
2022-11-22T01:47:25.266Z,74.30
2022-11-22T01:50:00.162Z,77.80
2022-11-22T01:52:32.308Z,79.10
2022-11-22T01:55:09.422Z,72.80
2022-11-22T01:57:39.383Z,68.70
2022-11-22T02:00:10.889Z,65.40
2022-11-22T02:02:51.568Z,70.30
2022-11-22T02:05:22.845Z,64.20
2022-11-22T02:07:59.059Z,65.70
2022-11-22T02:10:29.961Z,66.00
2022-11-22T02:12:59.863Z,64.10
2022-11-22T02:15:27.749Z,61.70
2022-11-22T02:17:58.443Z,65.10
2022-11-22T02:20:26.610Z,57.70
2022-11-22T02:23:14.429Z,64.80
2022-11-22T02:25:42.279Z,63.00
2022-11-22T02:28:13.518Z,57.20
2022-11-22T02:30:41.663Z,57.60
2022-11-22T02:33:09.629Z,59.70
2022-11-22T02:35:37.720Z,64.50
2022-11-22T02:38:13.011Z,63.80
2022-11-22T02:40:46.739Z,59.60
2022-11-22T02:43:18.786Z,60.30
2022-11-22T02:45:46.838Z,62.00
2022-11-22T02:48:17.222Z,59.90
2022-11-22T02:50:45.937Z,64.20
2022-11-22T02:53:14.230Z,63.80
2022-11-22T02:55:42.100Z,63.00
2022-11-22T02:58:10.008Z,63.50
2022-11-22T03:00:39.363Z,64.10
2022-11-22T03:03:07.486Z,65.50
2022-11-22T03:05:35.273Z,66.30
2022-11-22T03:08:03.193Z,64.10
2022-11-22T03:10:31.683Z,63.60
2022-11-22T03:12:59.733Z,69.20
2022-11-22T03:15:27.592Z,66.70
2022-11-22T03:18:00.147Z,61.20
2022-11-22T03:20:28.844Z,69.00
2022-11-22T03:22:57.041Z,62.40
2022-11-22T03:25:26.123Z,64.10
2022-11-22T03:27:54.447Z,69.20
2022-11-22T03:30:22.298Z,72.00
2022-11-22T03:32:50.185Z,69.80
2022-11-22T03:35:18.081Z,66.50
2022-11-22T03:37:45.887Z,66.00
2022-11-22T03:40:13.886Z,67.40
2022-11-22T03:42:42.087Z,71.50
2022-11-22T03:45:10.597Z,75.10
2022-11-22T03:47:38.441Z,78.50
2022-11-22T03:50:06.639Z,75.80
2022-11-22T03:52:34.819Z,77.60
2022-11-22T03:55:02.967Z,78.20
2022-11-22T03:57:31.229Z,77.80
2022-11-22T03:59:59.384Z,76.20
2022-11-22T04:02:27.498Z,74.50
2022-11-22T04:04:55.308Z,70.60
2022-11-22T04:07:23.516Z,77.20
2022-11-22T04:09:51.548Z,74.40
2022-11-22T04:12:19.267Z,81.90
2022-11-22T04:15:19.846Z,76.40
2022-11-22T04:17:48.527Z,74.10
2022-11-22T04:20:41.746Z,78.30
2022-11-22T04:23:14.078Z,73.60
2022-11-22T04:25:44.769Z,72.80
2022-11-22T04:28:14.419Z,71.30
2022-11-22T04:31:01.603Z,74.50
2022-11-22T04:33:30.405Z,77.50
2022-11-22T04:35:58.298Z,73.00
2022-11-22T04:38:26.258Z,68.40
2022-11-22T04:40:54.427Z,65.50
2022-11-22T04:43:42.504Z,66.30
2022-11-22T04:46:11.010Z,67.40
2022-11-22T04:48:39.200Z,67.10
2022-11-22T04:51:26.740Z,70.40
2022-11-22T04:53:54.577Z,64.70
2022-11-22T04:56:23.272Z,65.00
2022-11-22T04:58:55.951Z,62.90
2022-11-22T05:01:24.476Z,65.60
2022-11-22T05:03:52.521Z,61.00
2022-11-22T05:06:21.076Z,66.60
2022-11-22T05:08:50.158Z,65.10
2022-11-22T05:11:18.512Z,66.00
2022-11-22T05:13:46.431Z,72.80
2022-11-22T05:16:15.645Z,60.70
2022-11-22T05:18:43.890Z,59.70
2022-11-22T05:21:14.048Z,62.60
2022-11-22T05:23:57.176Z,63.00
2022-11-22T05:26:35.863Z,59.70
2022-11-22T05:29:08.046Z,66.10
2022-11-22T05:31:38.329Z,65.40
2022-11-22T05:34:07.082Z,68.00
2022-11-22T05:36:35.551Z,70.60
2022-11-22T05:39:07.443Z,69.80
2022-11-22T05:41:36.674Z,80.60
2022-11-22T05:44:05.565Z,75.70
2022-11-22T05:46:34.358Z,81.50
2022-11-22T05:49:02.760Z,70.40
2022-11-22T05:51:34.731Z,70.70
2022-11-22T05:54:04.108Z,71.60
2022-11-22T05:56:32.588Z,74.10
2022-11-22T05:59:00.956Z,70.80
2022-11-22T06:01:29.039Z,73.70
2022-11-22T06:03:58.017Z,78.90
2022-11-22T06:06:28.604Z,80.70
2022-11-22T06:08:59.189Z,77.40
2022-11-22T06:11:28.046Z,73.50
2022-11-22T06:13:59.665Z,80.20
2022-11-22T06:16:27.767Z,77.70
2022-11-22T06:18:56.790Z,77.40
2022-11-22T06:21:26.063Z,77.60
2022-11-22T06:23:55.135Z,75.60
2022-11-22T06:26:24.537Z,78.70
2022-11-22T06:28:54.514Z,81.30
2022-11-22T06:31:28.146Z,80.60
2022-11-22T06:33:59.708Z,74.20
2022-11-22T06:36:30.348Z,74.50
2022-11-22T06:38:58.818Z,81.90
2022-11-22T06:41:31.766Z,81.90
2022-11-22T06:43:59.788Z,73.90
2022-11-22T06:46:28.013Z,73.30
2022-11-22T06:48:56.213Z,73.40
2022-11-22T06:51:26.442Z,70.90
2022-11-22T06:53:58.219Z,76.30
2022-11-22T06:56:31.956Z,78.80
2022-11-22T06:59:04.038Z,73.00
2022-11-22T07:01:33.467Z,75.00
2022-11-22T07:04:02.158Z,76.50
2022-11-22T07:06:33.093Z,75.10
2022-11-22T07:09:02.540Z,67.50
2022-11-22T07:11:31.891Z,59.90
2022-11-22T07:14:06.866Z,55.60
2022-11-22T07:16:37.901Z,55.50
2022-11-22T07:19:06.737Z,57.10
2022-11-22T07:21:37.236Z,51.70
2022-11-22T07:24:07.159Z,52.90
2022-11-22T07:26:35.360Z,53.90
2022-11-22T07:29:04.240Z,53.80
2022-11-22T07:31:32.243Z,52.70
2022-11-22T07:34:00.262Z,52.60
2022-11-22T07:36:30.401Z,52.10
2022-11-22T07:38:58.590Z,52.60
2022-11-22T07:41:26.508Z,48.80
2022-11-22T07:43:54.720Z,51.40
2022-11-22T07:46:29.406Z,52.10
2022-11-22T07:48:58.402Z,51.00
2022-11-22T07:51:26.411Z,56.50
2022-11-22T07:53:56.007Z,57.40
2022-11-22T07:56:24.275Z,51.70
2022-11-22T07:58:52.349Z,50.00
2022-11-22T08:01:21.018Z,45.90
2022-11-22T08:03:49.359Z,58.20
2022-11-22T08:06:17.663Z,54.90
2022-11-22T08:08:47.648Z,56.80
2022-11-22T08:11:15.717Z,59.70
2022-11-22T08:13:44.742Z,60.10
2022-11-22T08:16:14.822Z,64.40
2022-11-22T08:18:47.735Z,61.40
2022-11-22T08:21:17.440Z,57.20
2022-11-22T08:23:46.477Z,60.30
2022-11-22T08:26:16.792Z,64.30
2022-11-22T08:28:45.630Z,64.40
2022-11-22T08:31:16.411Z,64.10
2022-11-22T08:33:44.437Z,65.80
2022-11-22T08:36:12.563Z,69.50
2022-11-22T08:38:41.821Z,70.70
2022-11-22T08:41:11.080Z,69.20
2022-11-22T08:43:39.355Z,66.60
2022-11-22T08:46:07.667Z,67.20
2022-11-22T08:48:37.192Z,70.00
2022-11-22T08:51:08.191Z,73.40
2022-11-22T08:53:38.957Z,66.40
2022-11-22T08:56:09.863Z,70.30
2022-11-22T08:58:38.526Z,72.60
2022-11-22T09:01:16.973Z,78.50
2022-11-22T09:03:45.451Z,79.10
2022-11-22T09:09:30.476Z,73.00
2022-11-22T09:11:55.233Z,77.90
2022-11-22T09:14:23.748Z,76.40
2022-11-22T09:16:52.534Z,73.20
2022-11-22T09:19:21.260Z,77.20
2022-11-22T09:21:50.358Z,80.80
2022-11-22T09:24:18.779Z,76.70
2022-11-22T09:26:46.720Z,66.30
2022-11-22T09:29:15.924Z,79.00
2022-11-22T09:31:44.497Z,80.90
2022-11-22T09:34:12.936Z,89.00
2022-11-22T09:36:41.228Z,89.40
2022-11-22T09:39:09.738Z,80.20
2022-11-22T09:41:43.968Z,79.80
2022-11-22T09:44:27.177Z,72.30
2022-11-22T09:46:58.924Z,83.30
2022-11-22T09:49:43.571Z,79.20
2022-11-22T09:52:28.691Z,84.10
2022-11-22T09:55:04.151Z,76.30
2022-11-22T09:57:40.698Z,80.30
2022-11-22T10:00:25.259Z,85.90
2022-11-22T10:03:27.081Z,81.70
2022-11-22T10:06:03.172Z,84.50
2022-11-22T10:08:41.730Z,79.70
2022-11-22T10:11:33.505Z,74.50
2022-11-22T10:14:44.986Z,78.60
2022-11-22T10:17:41.994Z,79.40
2022-11-22T10:20:23.422Z,73.30
2022-11-22T10:22:52.463Z,71.90
2022-11-22T10:25:40.224Z,70.40
2022-11-22T10:28:17.884Z,71.30
2022-11-22T10:30:57.773Z,68.20
2022-11-22T10:33:41.309Z,63.70
2022-11-22T10:36:32.409Z,70.90
2022-11-22T10:39:19.753Z,71.60
2022-11-22T10:42:25.885Z,77.70
2022-11-22T10:45:11.697Z,67.10
2022-11-22T10:48:04.630Z,78.90
2022-11-22T10:50:53.457Z,82.60
2022-11-22T10:53:43.140Z,80.40
2022-11-22T10:56:37.299Z,77.40
2022-11-22T10:59:32.997Z,82.40
2022-11-22T11:02:51.221Z,82.10
2022-11-22T11:05:37.323Z,81.70
2022-11-22T11:08:37.110Z,77.50
2022-11-22T11:11:00.133Z,80.00
2022-11-22T11:13:34.146Z,88.60
2022-11-22T11:16:08.016Z,87.50
2022-11-22T11:18:46.386Z,86.60
2022-11-22T11:21:15.099Z,88.90
2022-11-22T11:23:43.412Z,90.50
2022-11-22T11:26:26.238Z,92.40
2022-11-22T11:29:16.781Z,90.70
2022-11-22T11:32:10.350Z,93.20
2022-11-22T11:34:41.899Z,90.10
2022-11-22T11:37:21.206Z,91.60
2022-11-22T11:39:49.204Z,92.70
2022-11-22T11:42:29.180Z,85.10
2022-11-22T11:45:19.115Z,88.00
2022-11-22T11:47:47.340Z,82.80
2022-11-22T11:50:30.230Z,84.20
2022-11-22T11:53:07.412Z,87.40
2022-11-22T11:55:36.965Z,76.80
2022-11-22T11:58:20.862Z,84.80
2022-11-22T12:00:48.784Z,81.20
2022-11-22T12:03:19.785Z,87.90
2022-11-22T12:05:48.115Z,76.30
2022-11-22T12:08:30.064Z,82.40
2022-11-22T12:11:05.621Z,77.70
2022-11-22T12:14:04.532Z,80.00
2022-11-22T12:16:31.973Z,74.70
2022-11-22T12:19:06.657Z,72.70
2022-11-22T12:21:43.489Z,78.60
2022-11-22T12:24:45.243Z,79.50
2022-11-22T12:27:10.509Z,78.60
2022-11-22T12:29:40.911Z,76.00
2022-11-22T12:32:19.116Z,72.90
2022-11-22T12:34:57.146Z,76.70
2022-11-22T12:37:34.724Z,79.30
2022-11-22T12:40:12.953Z,76.90
2022-11-22T12:42:49.901Z,72.60
2022-11-22T12:45:32.898Z,74.80
2022-11-22T12:48:06.584Z,77.40
2022-11-22T12:50:43.365Z,72.80
2022-11-22T12:53:36.760Z,73.40
2022-11-22T12:56:18.047Z,79.80
2022-11-22T12:58:46.659Z,86.00
2022-11-22T13:01:27.107Z,74.50
2022-11-22T13:04:22.125Z,81.50
2022-11-22T13:07:12.187Z,78.40
2022-11-22T13:09:47.155Z,81.10
2022-11-22T13:12:21.516Z,89.70
2022-11-22T13:14:56.409Z,85.90
2022-11-22T13:17:27.331Z,78.80
2022-11-22T13:19:59.630Z,83.50
2022-11-22T13:23:05.281Z,83.80
2022-11-22T13:25:50.507Z,81.80
2022-11-22T13:28:23.105Z,85.90
2022-11-22T13:31:11.332Z,83.10
2022-11-22T13:33:43.699Z,80.60
2022-11-22T13:36:37.214Z,94.10
2022-11-22T13:39:19.642Z,89.10
2022-11-22T13:42:00.140Z,86.60
2022-11-22T13:44:36.405Z,85.70
2022-11-22T13:47:25.662Z,89.60
2022-11-22T13:49:54.329Z,91.20
2022-11-22T13:52:22.650Z,85.60
2022-11-22T13:54:52.763Z,85.00
2022-11-22T13:57:40.814Z,92.70
2022-11-22T14:00:12.295Z,94.70
2022-11-22T14:02:42.285Z,92.20
2022-11-22T14:05:19.046Z,89.80
2022-11-22T14:07:52.627Z,80.40
2022-11-22T14:10:42.503Z,98.30
2022-11-22T14:13:39.125Z,96.60
2022-11-22T14:16:26.246Z,89.20
2022-11-22T14:19:19.409Z,86.20
2022-11-22T14:21:58.202Z,95.40
2022-11-22T14:24:45.459Z,103.90
2022-11-22T14:27:30.425Z,90.30
2022-11-22T14:30:21.050Z,86.30
2022-11-22T14:32:54.659Z,106.20
2022-11-22T14:35:37.969Z,103.60
2022-11-22T14:38:09.322Z,90.80
2022-11-22T14:40:41.585Z,93.20
2022-11-22T14:43:30.026Z,96.80
2022-11-22T14:46:37.334Z,92.40
2022-11-22T14:49:32.022Z,93.50
2022-11-22T14:52:00.539Z,96.10
2022-11-22T14:54:43.458Z,94.80
2022-11-22T14:57:17.779Z,103.00
2022-11-22T15:00:18.265Z,93.50
2022-11-22T15:03:04.611Z,87.50
2022-11-22T15:09:20.353Z,88.00
2022-11-22T15:09:52.962Z,100.30
2022-11-22T15:12:48.614Z,103.70
2022-11-22T15:57:37.801Z,100.40
2022-11-22T16:00:18.971Z,98.10
2022-11-22T16:02:53.863Z,93.60
2022-11-22T16:06:06.251Z,95.80
2022-11-22T16:08:36.033Z,92.80
2022-11-22T16:11:04.411Z,100.80
2022-11-22T16:13:36.092Z,90.60
2022-11-22T16:16:11.018Z,103.60
2022-11-22T16:18:41.344Z,102.30
2022-11-22T16:21:12.764Z,93.70
2022-11-22T16:23:42.809Z,95.70
2022-11-22T16:26:19.013Z,103.30
2022-11-22T16:28:49.355Z,78.90
2022-11-22T16:31:30.205Z,85.40
2022-11-22T16:33:59.001Z,92.20
2022-11-22T16:36:29.804Z,97.60
2022-11-22T16:38:58.752Z,95.70
2022-11-22T16:41:29.385Z,85.10
2022-11-22T16:44:02.942Z,85.00
2022-11-22T16:46:31.071Z,89.80
2022-11-22T16:48:59.918Z,87.20
2022-11-22T16:51:29.403Z,97.40
2022-11-22T16:54:00.047Z,97.60
2022-11-22T16:56:30.192Z,97.00
2022-11-22T16:58:58.817Z,97.00
2022-11-22T17:01:32.734Z,105.10
2022-11-22T17:04:03.418Z,105.60
2022-11-22T17:06:32.919Z,101.40
2022-11-22T17:09:02.784Z,101.70
2022-11-22T17:11:32.923Z,99.00
2022-11-22T17:14:01.705Z,107.70
2022-11-22T17:16:32.821Z,112.30
2022-11-22T17:19:01.274Z,110.90
2022-11-22T17:21:38.083Z,99.30
2022-11-22T17:24:20.804Z,105.70
2022-11-22T17:26:49.171Z,86.70
2022-11-22T17:32:06.074Z,105.40
2022-11-22T17:34:35.853Z,101.30
2022-11-22T17:37:04.177Z,103.60
2022-11-22T17:39:32.582Z,109.00
2022-11-22T17:42:00.668Z,87.90
2022-11-22T17:44:28.778Z,102.70
2022-11-22T17:46:56.789Z,106.30
2022-11-22T17:49:25.227Z,107.10
2022-11-22T17:51:53.248Z,112.00
2022-11-22T17:54:21.360Z,100.50
2022-11-22T17:56:50.071Z,106.10
2022-11-22T17:59:18.496Z,95.50
2022-11-22T18:01:47.403Z,105.30
2022-11-22T18:04:17.655Z,102.80
2022-11-22T18:06:45.743Z,102.80
2022-11-22T18:09:13.863Z,98.20
2022-11-22T18:11:42.167Z,105.40
2022-11-22T18:14:11.444Z,107.70
2022-11-22T18:16:41.331Z,104.80
2022-11-22T18:19:13.950Z,92.40
2022-11-22T18:21:44.676Z,99.70
2022-11-22T18:24:13.521Z,108.70
2022-11-22T18:26:42.284Z,107.30
2022-11-22T18:32:01.953Z,107.20
2022-11-22T18:34:31.024Z,100.40
2022-11-22T18:37:02.921Z,112.00
2022-11-22T18:39:40.723Z,101.20
2022-11-22T18:42:14.954Z,108.60
2022-11-22T18:44:43.267Z,111.70
2022-11-22T18:47:12.615Z,108.90
2022-11-22T18:49:41.566Z,108.80
2022-11-22T18:52:13.390Z,109.70
2022-11-22T18:54:45.460Z,103.50
2022-11-22T18:57:13.961Z,101.60
2022-11-22T18:59:42.234Z,97.90
2022-11-22T19:02:10.643Z,102.80
2022-11-22T19:04:39.121Z,105.20
2022-11-22T19:07:07.735Z,110.40
2022-11-22T19:09:36.582Z,98.00
2022-11-22T19:12:06.533Z,98.80
2022-11-22T19:14:35.024Z,106.60
2022-11-22T19:17:04.708Z,99.40
2022-11-22T19:19:34.561Z,101.40
2022-11-22T19:22:03.317Z,93.40
2022-11-22T19:24:32.860Z,96.30
2022-11-22T19:27:01.904Z,103.10
2022-11-22T19:29:33.223Z,105.20
2022-11-22T19:32:05.320Z,95.90
2022-11-22T19:34:33.968Z,99.60
2022-11-22T19:37:03.902Z,101.00
2022-11-22T19:39:35.446Z,82.40
2022-11-22T19:42:04.070Z,104.20
2022-11-22T19:44:38.159Z,105.90
2022-11-22T19:47:12.296Z,103.70
2022-11-22T19:49:40.680Z,113.60
2022-11-22T19:52:10.363Z,106.70
2022-11-22T19:54:38.762Z,101.50
2022-11-22T19:57:08.871Z,107.60
2022-11-22T19:59:37.614Z,104.60
2022-11-22T20:02:06.186Z,97.30
2022-11-22T20:04:49.882Z,97.10
2022-11-22T20:07:19.063Z,94.70
2022-11-22T20:09:50.231Z,101.80
2022-11-22T20:12:19.548Z,95.20
2022-11-22T20:14:47.653Z,82.80
2022-11-22T20:17:16.705Z,96.40
2022-11-22T20:19:45.303Z,93.30
2022-11-22T20:22:13.516Z,97.00
2022-11-22T20:24:41.756Z,90.00
2022-11-22T20:27:11.664Z,91.40
2022-11-22T20:29:41.616Z,87.40
2022-11-22T20:32:09.896Z,95.70
2022-11-22T20:34:38.481Z,95.70
2022-11-22T20:37:07.369Z,90.30
2022-11-22T20:39:37.382Z,96.90
2022-11-22T20:42:32.461Z,96.50
2022-11-22T20:44:53.381Z,96.10
2022-11-22T20:47:21.878Z,94.00
2022-11-22T20:49:50.194Z,97.30
2022-11-22T20:52:18.254Z,90.30
2022-11-22T20:54:48.098Z,87.70
2022-11-22T20:57:16.446Z,95.20
2022-11-22T20:59:48.232Z,88.80
2022-11-22T21:02:16.471Z,100.20
2022-11-22T21:04:45.734Z,93.60
2022-11-22T21:07:13.953Z,100.40
2022-11-22T21:09:42.130Z,93.80
2022-11-22T21:12:11.611Z,89.00
2022-11-22T21:14:40.055Z,102.00
2022-11-22T21:17:37.235Z,90.50
2022-11-22T21:19:56.244Z,100.00
2022-11-22T21:22:30.191Z,96.70
2022-11-22T21:25:00.207Z,88.30
2022-11-22T21:27:28.472Z,93.50
2022-11-22T21:29:57.269Z,96.70
2022-11-22T21:32:26.448Z,96.80
2022-11-22T21:35:00.922Z,92.90
2022-11-22T21:37:28.908Z,103.90
2022-11-22T21:39:57.007Z,103.10
2022-11-22T21:42:25.382Z,92.90
2022-11-22T21:44:53.532Z,89.60
2022-11-22T21:47:23.530Z,94.30
2022-11-22T21:49:52.055Z,87.70
2022-11-22T21:52:20.587Z,100.70
2022-11-22T21:54:48.861Z,91.40
2022-11-22T21:57:16.980Z,95.50
2022-11-22T21:59:45.440Z,96.60
2022-11-22T22:02:13.560Z,92.80
2022-11-22T22:04:41.439Z,94.30
2022-11-22T22:07:29.724Z,93.90
2022-11-22T22:09:59.003Z,89.90
2022-11-22T22:12:27.146Z,91.90
2022-11-22T22:14:55.421Z,94.90
2022-11-22T22:17:23.481Z,85.80
2022-11-22T22:19:52.485Z,88.00
2022-11-22T22:22:20.665Z,90.10
2022-11-22T22:24:48.614Z,87.80
2022-11-22T22:27:16.921Z,85.80
2022-11-22T22:29:45.705Z,81.90
2022-11-22T22:32:14.372Z,83.80
2022-11-22T22:34:43.547Z,84.50
2022-11-22T22:37:11.727Z,94.80
2022-11-22T22:39:39.558Z,86.70
2022-11-22T22:42:07.542Z,85.30
2022-11-22T22:44:35.539Z,85.30
2022-11-22T22:47:03.649Z,92.00
2022-11-22T22:49:31.701Z,87.40
2022-11-22T22:51:59.651Z,84.90
2022-11-22T22:54:27.686Z,89.80
2022-11-22T22:56:55.665Z,91.70
2022-11-22T22:59:23.655Z,89.00
2022-11-22T23:01:51.804Z,85.30
2022-11-22T23:04:19.858Z,83.80
2022-11-22T23:06:48.026Z,86.40
2022-11-22T23:09:16.405Z,91.30
2022-11-22T23:12:03.068Z,98.80
2022-11-22T23:14:30.905Z,92.30
2022-11-22T23:16:58.738Z,91.40
2022-11-22T23:19:27.555Z,94.80
2022-11-22T23:21:55.641Z,93.60
2022-11-22T23:24:23.787Z,82.60
2022-11-22T23:26:51.997Z,77.00
2022-11-22T23:29:20.112Z,90.30
2022-11-22T23:31:48.105Z,83.10
2022-11-22T23:34:16.733Z,81.60
2022-11-22T23:36:44.814Z,73.70
2022-11-22T23:39:12.954Z,84.10
2022-11-22T23:41:41.441Z,79.10
2022-11-22T23:44:10.114Z,85.60
2022-11-22T23:46:38.324Z,85.10
2022-11-22T23:49:07.038Z,81.40
2022-11-22T23:51:35.772Z,82.30
2022-11-22T23:54:05.741Z,81.80
2022-11-22T23:56:35.715Z,84.00
2022-11-22T23:59:05.646Z,76.60
